Time;durP1;ratioP1;P1;durP2;ratioP2;P2;SDS_P1;SDS_P2;PMS_P1;PMS_P2;Temp;Humidity;BMP_temperature;BMP_pressure;BME280_temperature;BME280_humidity;BME280_pressure;Samples;Min_cycle;Max_cycle;Signal;HPM_P1;HPM_P2
2022/04/09 00:01:28;;;;;;;5.20;0.83;;;3.70;99.90;;;;;;5054050;28;20175;-82
2022/04/09 00:03:53;;;;;;;4.20;1.70;;;3.70;99.90;;;;;;5054644;28;20918;-84
2022/04/09 00:06:19;;;;;;;3.33;1.33;;;3.60;99.90;;;;;;5054104;28;20558;-85
2022/04/09 00:08:44;;;;;;;8.10;1.63;;;3.70;99.90;;;;;;5053816;28;20656;-83
2022/04/09 00:11:10;;;;;;;2.90;1.00;;;3.70;99.90;;;;;;5054088;28;20169;-82
2022/04/09 00:13:36;;;;;;;5.30;1.40;;;3.80;99.90;;;;;;5053326;28;20272;-82
2022/04/09 00:16:02;;;;;;;4.23;1.23;;;3.90;99.90;;;;;;5053899;28;20173;-83
2022/04/09 00:18:27;;;;;;;1.80;0.80;;;3.80;99.90;;;;;;5053738;28;20456;-84
2022/04/09 00:20:59;;;;;;;3.50;0.53;;;3.80;99.90;;;;;;5054105;28;20170;-82
2022/04/09 00:23:24;;;;;;;2.90;1.27;;;3.70;99.90;;;;;;5053918;28;20172;-82
2022/04/09 00:25:50;;;;;;;3.70;0.60;;;3.70;99.90;;;;;;5053217;28;20409;-82
2022/04/09 00:28:16;;;;;;;4.67;0.73;;;3.60;99.90;;;;;;5053710;28;20187;-81
2022/04/09 00:30:42;;;;;;;4.10;0.80;;;3.60;99.90;;;;;;5052876;28;20401;-82
2022/04/09 00:33:07;;;;;;;3.97;1.43;;;3.60;99.90;;;;;;5051787;28;20267;-83
2022/04/09 00:35:33;;;;;;;4.50;1.20;;;3.60;99.90;;;;;;5053931;28;20236;-83
2022/04/09 00:37:59;;;;;;;4.03;1.10;;;3.50;99.90;;;;;;5053174;28;20169;-83
2022/04/09 00:40:26;;;;;;;4.73;1.10;;;3.50;99.90;;;;;;5053683;28;20188;-84
2022/04/09 00:42:52;;;;;;;2.90;0.70;;;3.40;99.90;;;;;;5060957;28;20204;-86
2022/04/09 00:45:17;;;;;;;8.67;1.17;;;3.50;99.90;;;;;;5073542;28;20440;-86
2022/04/09 00:47:43;;;;;;;1.20;0.90;;;3.40;99.90;;;;;;5073529;28;20407;-82
2022/04/09 00:50:11;;;;;;;6.33;0.80;;;3.40;99.90;;;;;;5073391;28;20410;-86
2022/04/09 00:52:42;;;;;;;4.40;1.10;;;3.40;99.90;;;;;;5073175;28;20886;-84
2022/04/09 00:55:12;;;;;;;6.53;1.30;;;3.40;99.90;;;;;;5072538;28;20467;-81
2022/04/09 00:57:39;;;;;;;5.83;0.80;;;3.30;99.90;;;;;;5071357;28;20483;-87
2022/04/09 01:00:09;;;;;;;3.13;0.93;;;3.30;99.90;;;;;;5073132;28;20967;-82
2022/04/09 01:02:43;;;;;;;1.80;0.43;;;3.40;99.90;;;;;;5072832;28;20421;-82
2022/04/09 01:05:16;;;;;;;1.43;0.80;;;3.30;99.90;;;;;;5072990;28;20423;-82
2022/04/09 01:07:41;;;;;;;2.47;1.07;;;3.30;99.90;;;;;;5072906;28;20417;-82
2022/04/09 01:10:08;;;;;;;3.87;0.80;;;3.30;99.90;;;;;;5072312;28;20757;-84
2022/04/09 01:12:36;;;;;;;5.20;0.63;;;3.30;99.90;;;;;;5072704;28;20561;-82
2022/04/09 01:15:08;;;;;;;1.80;0.57;;;3.30;99.90;;;;;;5072675;28;20474;-85
2022/04/09 01:17:37;;;;;;;0.80;0.40;;;3.30;99.90;;;;;;5072470;28;20410;-85
2022/04/09 01:20:20;;;;;;;4.13;1.07;;;3.20;99.90;;;;;;5071129;28;20923;-85
2022/04/09 01:22:47;;;;;;;2.67;0.53;;;3.30;99.90;;;;;;5072637;28;20411;-84
2022/04/09 01:25:13;;;;;;;5.03;1.20;;;3.30;99.90;;;;;;5072149;28;20425;-83
2022/04/09 01:27:38;;;;;;;4.77;1.30;;;3.20;99.90;;;;;;5072957;28;20440;-84
2022/04/09 01:30:04;;;;;;;2.77;0.70;;;3.20;99.90;;;;;;5073089;28;20659;-82
2022/04/09 01:32:30;;;;;;;3.03;0.67;;;3.10;99.90;;;;;;5072344;28;20209;-86
2022/04/09 01:35:00;;;;;;;5.80;1.47;;;3.00;99.90;;;;;;5072120;28;20505;-81
2022/04/09 01:37:26;;;;;;;3.03;0.90;;;3.00;99.90;;;;;;5071057;28;20764;-83
2022/04/09 01:39:51;;;;;;;7.13;0.97;;;3.00;99.90;;;;;;5070776;28;20482;-81
2022/04/09 01:42:18;;;;;;;3.43;1.90;;;3.10;99.90;;;;;;5072001;28;20626;-81
2022/04/09 01:44:44;;;;;;;7.33;2.00;;;3.10;99.90;;;;;;5072308;28;20173;-87
2022/04/09 01:47:10;;;;;;;4.70;1.73;;;3.10;99.90;;;;;;5072215;28;20419;-84
2022/04/09 01:49:38;;;;;;;4.30;1.30;;;3.20;99.90;;;;;;5072050;28;20177;-82
2022/04/09 01:52:04;;;;;;;3.03;1.10;;;3.40;99.90;;;;;;5072307;28;20192;-81
2022/04/09 01:54:30;;;;;;;3.37;0.73;;;3.50;99.90;;;;;;5072395;28;21016;-82
2022/04/09 01:56:55;;;;;;;2.07;1.10;;;3.40;99.90;;;;;;5072012;28;20172;-82
2022/04/09 01:59:20;;;;;;;1.33;0.83;;;3.30;99.90;;;;;;5071885;28;20176;-83
2022/04/09 02:01:48;;;;;;;6.13;1.37;;;3.20;99.90;;;;;;5070466;28;20188;-82
2022/04/09 02:04:14;;;;;;;1.07;0.73;;;3.10;99.90;;;;;;5071996;28;20162;-83
2022/04/09 02:06:42;;;;;;;5.97;0.50;;;3.00;99.90;;;;;;5071991;28;21014;-83
2022/04/09 02:09:13;;;;;;;1.43;0.50;;;3.00;99.90;;;;;;5071620;28;20410;-82
2022/04/09 02:11:41;;;;;;;2.00;0.60;;;3.00;99.90;;;;;;5071804;28;20464;-82
2022/04/09 02:14:11;;;;;;;9.97;1.10;;;2.90;99.90;;;;;;5072552;28;20835;-80
2022/04/09 02:16:37;;;;;;;4.70;1.73;;;2.90;99.90;;;;;;5071408;28;20982;-81
2022/04/09 02:19:03;;;;;;;1.57;0.50;;;2.90;99.90;;;;;;5072575;28;20860;-79
2022/04/09 02:21:29;;;;;;;1.10;0.40;;;2.90;99.90;;;;;;5072536;28;20420;-79
2022/04/09 02:23:54;;;;;;;2.07;0.83;;;2.80;99.90;;;;;;5070993;28;20563;-79
2022/04/09 02:26:20;;;;;;;3.90;1.20;;;2.90;99.90;;;;;;5071414;28;20566;-79
2022/04/09 02:28:47;;;;;;;1.53;0.47;;;2.80;99.90;;;;;;5071663;28;20176;-80
2022/04/09 02:31:15;;;;;;;1.83;0.73;;;2.80;99.90;;;;;;5072113;28;20577;-79
2022/04/09 02:33:41;;;;;;;4.17;0.80;;;2.90;99.90;;;;;;5072505;28;20835;-80
2022/04/09 02:36:10;;;;;;;3.37;1.13;;;2.80;99.90;;;;;;5072484;28;20425;-79
2022/04/09 02:38:36;;;;;;;2.30;0.80;;;2.90;99.90;;;;;;5072155;28;20186;-80
2022/04/09 02:41:01;;;;;;;2.80;1.10;;;2.90;99.90;;;;;;5072436;28;20419;-79
2022/04/09 02:43:27;;;;;;;3.13;0.77;;;2.90;99.90;;;;;;5071176;28;20203;-80
2022/04/09 02:45:52;;;;;;;3.13;0.73;;;2.80;99.90;;;;;;5072458;28;20169;-79
2022/04/09 02:48:18;;;;;;;1.80;0.80;;;2.80;99.90;;;;;;5072488;28;20171;-80
2022/04/09 02:50:43;;;;;;;2.40;0.70;;;2.80;99.90;;;;;;5072350;28;20682;-79
2022/04/09 02:53:12;;;;;;;1.33;0.50;;;2.80;99.90;;;;;;5072134;28;20509;-80
2022/04/09 02:55:38;;;;;;;0.97;0.63;;;2.90;99.90;;;;;;5074714;28;20578;-80
2022/04/09 02:58:03;;;;;;;2.47;1.00;;;2.80;99.90;;;;;;5076352;28;20421;-79
2022/04/09 03:00:29;;;;;;;1.70;0.80;;;2.80;99.90;;;;;;5076390;28;20177;-79
2022/04/09 03:02:57;;;;;;;2.83;0.80;;;2.80;99.90;;;;;;5076416;28;20178;-79
2022/04/09 03:05:23;;;;;;;6.83;1.30;;;2.80;99.90;;;;;;5076380;28;20169;-79
2022/04/09 03:07:48;;;;;;;2.20;1.10;;;2.70;99.90;;;;;;5076185;28;20923;-79
2022/04/09 03:10:14;;;;;;;1.30;0.80;;;2.80;99.90;;;;;;5075536;28;20179;-78
2022/04/09 03:12:46;;;;;;;2.37;0.93;;;2.80;99.90;;;;;;5076338;28;20654;-80
2022/04/09 03:15:12;;;;;;;3.07;0.93;;;2.80;99.90;;;;;;5076246;28;20311;-79
2022/04/09 03:17:38;;;;;;;7.60;1.17;;;2.80;99.90;;;;;;5075943;28;20455;-79
2022/04/09 03:20:04;;;;;;;8.10;0.90;;;2.80;99.90;;;;;;5076123;28;20777;-79
2022/04/09 03:22:30;;;;;;;3.60;1.03;;;2.70;99.90;;;;;;5076173;28;20178;-79
2022/04/09 03:24:59;;;;;;;6.30;1.50;;;2.70;99.90;;;;;;5075804;28;20418;-78
2022/04/09 03:27:25;;;;;;;2.47;1.53;;;2.60;99.90;;;;;;5076006;28;20175;-78
2022/04/09 03:29:54;;;;;;;2.60;1.37;;;2.60;99.90;;;;;;5076234;28;20905;-78
2022/04/09 03:32:21;;;;;;;4.03;1.20;;;2.60;99.90;;;;;;5075948;28;20411;-78
2022/04/09 03:34:48;;;;;;;2.40;0.90;;;2.60;99.90;;;;;;5075866;28;20474;-79
2022/04/09 03:37:13;;;;;;;3.80;1.03;;;2.50;99.90;;;;;;5075885;28;20911;-78
2022/04/09 03:39:41;;;;;;;2.73;0.67;;;2.50;99.90;;;;;;5074227;28;20476;-79
2022/04/09 03:42:07;;;;;;;5.30;1.07;;;2.50;99.90;;;;;;5074576;28;20177;-79
2022/04/09 03:44:33;;;;;;;6.40;1.63;;;2.40;99.90;;;;;;5075688;28;20458;-79
2022/04/09 03:47:00;;;;;;;3.10;1.10;;;2.40;99.90;;;;;;5075847;28;20934;-79
2022/04/09 03:49:28;;;;;;;4.17;1.20;;;2.40;99.90;;;;;;5075671;28;20180;-79
2022/04/09 03:51:53;;;;;;;2.77;1.27;;;2.40;99.90;;;;;;5075633;28;20498;-79
2022/04/09 03:54:19;;;;;;;3.13;1.20;;;2.30;99.90;;;;;;5075153;28;20559;-78
2022/04/09 03:56:44;;;;;;;2.03;0.53;;;2.30;99.90;;;;;;5075501;28;20181;-80
2022/04/09 03:59:10;;;;;;;1.70;0.70;;;2.30;99.90;;;;;;5075500;28;20215;-79
2022/04/09 04:01:36;;;;;;;3.20;1.30;;;2.30;99.90;;;;;;5075514;28;20520;-78
2022/04/09 04:04:02;;;;;;;3.80;1.23;;;2.30;99.90;;;;;;5075400;28;20169;-80
2022/04/09 04:06:28;;;;;;;3.80;1.60;;;2.20;99.90;;;;;;5075180;28;21668;-80
2022/04/09 04:08:55;;;;;;;4.27;1.67;;;2.30;99.90;;;;;;5075030;28;20558;-81
2022/04/09 04:11:22;;;;;;;5.97;2.00;;;2.20;99.90;;;;;;5073954;28;20930;-82
2022/04/09 04:13:48;;;;;;;5.23;1.70;;;2.30;99.90;;;;;;5073876;28;20848;-79
2022/04/09 04:16:15;;;;;;;4.83;1.40;;;2.30;99.90;;;;;;5075135;28;20419;-80
2022/04/09 04:18:41;;;;;;;3.80;1.87;;;2.30;99.90;;;;;;5075030;28;20471;-82
2022/04/09 04:21:07;;;;;;;2.40;1.00;;;2.40;99.90;;;;;;5075100;28;20434;-79
2022/04/09 04:23:33;;;;;;;4.50;1.50;;;2.30;99.90;;;;;;5074743;28;20422;-81
2022/04/09 04:26:07;;;;;;;6.03;1.73;;;2.40;99.90;;;;;;5074979;28;20409;-79
2022/04/09 04:28:33;;;;;;;4.50;1.37;;;2.40;99.90;;;;;;5075044;28;20171;-81
2022/04/09 04:30:58;;;;;;;2.23;0.87;;;2.40;99.90;;;;;;5074926;28;20843;-80
2022/04/09 04:33:24;;;;;;;11.17;1.97;;;2.40;99.90;;;;;;5074929;28;20165;-82
2022/04/09 04:35:50;;;;;;;5.03;1.80;;;2.40;99.90;;;;;;5074855;28;20256;-80
2022/04/09 04:38:15;;;;;;;7.67;1.80;;;2.40;99.90;;;;;;5074507;28;20173;-79
2022/04/09 04:40:41;;;;;;;3.40;1.03;;;2.50;99.90;;;;;;5074723;28;20438;-79
2022/04/09 04:43:07;;;;;;;4.40;1.30;;;2.50;99.90;;;;;;5074687;28;20165;-79
2022/04/09 04:45:32;;;;;;;8.90;1.67;;;2.40;99.90;;;;;;5074643;28;20256;-79
2022/04/09 04:47:58;;;;;;;4.07;1.07;;;2.50;99.90;;;;;;5074494;28;20196;-81
2022/04/09 04:50:27;;;;;;;5.57;1.23;;;2.50;99.90;;;;;;5074430;28;20218;-79
2022/04/09 04:52:53;;;;;;;6.00;1.53;;;2.50;99.90;;;;;;5074016;28;20471;-81
2022/04/09 04:55:18;;;;;;;4.37;1.10;;;2.50;99.90;;;;;;5074309;28;20470;-81
2022/04/09 04:57:52;;;;;;;14.43;3.60;;;2.70;99.90;;;;;;5074260;28;20651;-81
2022/04/09 05:00:27;;;;;;;2.40;1.03;;;2.80;99.90;;;;;;5074151;28;20537;-79
2022/04/09 05:02:55;;;;;;;3.03;0.80;;;2.90;99.90;;;;;;5074198;28;20412;-79
2022/04/09 05:05:20;;;;;;;7.83;1.83;;;3.00;99.90;;;;;;5074247;28;20401;-79
2022/04/09 05:07:48;;;;;;;3.60;1.43;;;2.90;99.90;;;;;;5073833;28;20423;-79
2022/04/09 05:10:24;;;;;;;2.20;1.17;;;2.90;99.90;;;;;;5074125;28;20173;-79
2022/04/09 05:12:52;;;;;;;7.23;2.33;;;3.00;99.90;;;;;;5072794;28;20423;-79
2022/04/09 05:15:18;;;;;;;4.37;1.50;;;3.10;99.90;;;;;;5073949;28;20638;-78
2022/04/09 05:17:44;;;;;;;6.77;2.50;;;3.40;99.90;;;;;;5071834;28;20547;-82
2022/04/09 05:20:12;;;;;;;6.83;1.10;;;3.50;99.90;;;;;;5073918;28;20956;-82
2022/04/09 05:22:41;;;;;;;7.27;1.20;;;3.60;99.90;;;;;;5073610;28;20481;-83
2022/04/09 05:25:07;;;;;;;7.37;2.00;;;3.70;99.90;;;;;;5073419;28;20771;-80
2022/04/09 05:27:33;;;;;;;7.17;2.17;;;3.70;99.90;;;;;;5072320;28;20955;-80
2022/04/09 05:29:59;;;;;;;10.93;1.83;;;3.70;99.90;;;;;;5072350;28;20425;-79
2022/04/09 05:32:27;;;;;;;4.30;1.47;;;4.00;99.90;;;;;;5073594;28;20413;-80
2022/04/09 05:34:52;;;;;;;10.73;2.10;;;4.50;99.90;;;;;;5073431;28;20271;-82
2022/04/09 05:37:18;;;;;;;4.60;1.63;;;3.90;99.90;;;;;;5073484;28;20410;-80
2022/04/09 05:39:43;;;;;;;5.27;1.90;;;3.90;99.90;;;;;;5071912;28;20320;-81
2022/04/09 05:42:10;;;;;;;11.53;2.23;;;3.60;99.90;;;;;;5072119;28;20252;-80
2022/04/09 05:44:35;;;;;;;6.07;1.90;;;4.80;99.90;;;;;;5073383;28;20206;-81
2022/04/09 05:47:01;;;;;;;4.87;1.43;;;5.30;1.00;;;;;;5072053;28;20419;-80
2022/04/09 05:49:27;;;;;;;2.50;1.57;;;5.90;1.00;;;;;;5073238;28;20212;-83
2022/04/09 05:51:53;;;;;;;4.70;1.00;;;6.20;99.90;;;;;;5073311;28;20161;-83
2022/04/09 05:54:18;;;;;;;3.43;0.87;;;6.30;1.00;;;;;;5072812;28;20812;-82
2022/04/09 05:56:44;;;;;;;2.00;0.47;;;6.60;1.00;;;;;;5071819;28;20174;-82
2022/04/09 05:59:10;;;;;;;4.33;1.30;;;6.90;99.90;;;;;;5071937;28;20170;-81
2022/04/09 06:01:35;;;;;;;7.03;0.93;;;6.70;99.90;;;;;;5073080;28;20211;-82
2022/04/09 06:04:01;;;;;;;4.87;1.43;;;7.20;1.00;;;;;;5073178;28;20223;-80
2022/04/09 06:06:27;;;;;;;5.67;3.00;;;7.80;1.00;;;;;;5073097;28;20185;-80
2022/04/09 06:08:53;;;;;;;6.47;0.93;;;8.00;99.90;;;;;;5071365;28;20421;-80
2022/04/09 06:11:19;;;;;;;3.13;0.60;;;8.40;99.90;;;;;;5072952;28;20778;-80
2022/04/09 06:13:44;;;;;;;8.03;1.40;;;8.90;1.00;;;;;;5072772;28;20202;-81
2022/04/09 06:16:11;;;;;;;3.27;1.00;;;8.20;1.00;;;;;;5073015;28;20178;-80
2022/04/09 06:18:38;;;;;;;10.00;1.63;;;6.30;99.90;;;;;;5072816;28;20222;-82
2022/04/09 06:21:04;;;;;;;9.17;1.80;;;5.40;1.00;;;;;;5073042;28;20414;-82
2022/04/09 06:23:30;;;;;;;4.67;0.87;;;5.20;16.60;;;;;;5072451;28;20424;-82
2022/04/09 06:25:55;;;;;;;4.90;1.00;;;5.70;1.00;;;;;;5072827;28;20748;-82
2022/04/09 06:28:21;;;;;;;7.83;1.50;;;8.20;1.00;;;;;;5072773;28;20182;-82
2022/04/09 06:30:46;;;;;;;3.37;1.10;;;8.20;99.90;;;;;;5072814;28;20243;-82
2022/04/09 06:33:12;;;;;;;5.87;1.00;;;6.60;1.00;;;;;;5072758;28;20203;-82
2022/04/09 06:35:40;;;;;;;5.30;0.77;;;5.90;1.00;;;;;;5072545;28;20235;-81
2022/04/09 06:38:06;;;;;;;5.47;1.03;;;5.50;1.00;;;;;;5072192;28;20176;-82
2022/04/09 06:40:32;;;;;;;1.93;0.53;;;5.10;99.90;;;;;;5072698;28;20418;-82
2022/04/09 06:42:58;;;;;;;4.53;1.30;;;4.90;99.90;;;;;;5072495;28;20225;-82
2022/04/09 06:45:24;;;;;;;3.03;0.87;;;4.80;99.90;;;;;;5072612;28;20221;-81
2022/04/09 06:47:51;;;;;;;4.40;1.37;;;6.30;99.30;;;;;;5072624;28;20973;-82
2022/04/09 06:50:17;;;;;;;1.70;0.70;;;9.20;99.90;;;;;;5071305;28;20519;-82
2022/04/09 06:52:46;;;;;;;7.00;1.17;;;10.70;1.00;;;;;;5072198;28;20418;-82
2022/04/09 06:55:12;;;;;;;4.53;0.80;;;11.20;99.90;;;;;;5073417;28;20551;-82
2022/04/09 06:57:39;;;;;;;4.27;0.93;;;12.10;99.90;;;;;;5072707;28;20869;-83
2022/04/09 07:00:12;;;;;;;4.20;0.47;;;11.20;99.90;;;;;;5072591;28;20173;-82
2022/04/09 07:02:38;;;;;;;3.30;1.17;;;9.30;1.00;;;;;;5072748;28;20415;-82
2022/04/09 07:05:04;;;;;;;4.50;1.20;;;7.50;1.00;;;;;;5072791;28;20771;-81
2022/04/09 07:07:30;;;;;;;3.70;0.67;;;6.90;99.90;;;;;;5072133;28;20168;-82
2022/04/09 07:10:11;;;;;;;5.40;0.77;;;9.70;99.90;;;;;;5072731;28;20468;-82
2022/04/09 07:12:37;;;;;;;5.33;0.67;;;11.80;99.90;;;;;;5072377;28;20280;-82
2022/04/09 07:15:04;;;;;;;9.03;0.50;;;10.00;99.90;;;;;;5072364;28;20520;-82
2022/04/09 07:17:30;;;;;;;6.63;0.77;;;8.20;1.00;;;;;;5072165;28;20814;-82
2022/04/09 07:20:00;;;;;;;3.83;0.50;;;7.00;99.90;;;;;;5072371;28;20502;-82
2022/04/09 07:22:26;;;;;;;6.57;1.37;;;6.50;1.00;;;;;;5071657;28;20437;-82
2022/04/09 07:24:52;;;;;;;4.30;0.83;;;6.30;1.00;;;;;;5072327;28;20423;-82
2022/04/09 07:27:17;;;;;;;6.53;0.70;;;7.00;1.00;;;;;;5071079;28;20478;-82
2022/04/09 07:29:43;;;;;;;4.13;0.33;;;10.60;1.00;;;;;;5072009;28;20416;-84
2022/04/09 07:32:08;;;;;;;2.43;0.73;;;12.60;99.90;;;;;;5072232;28;20503;-85
2022/04/09 07:34:34;;;;;;;1.20;0.30;;;13.10;99.90;;;;;;5072067;28;20673;-81
2022/04/09 07:37:00;;;;;;;1.93;0.40;;;11.10;99.90;;;;;;5072206;28;20161;-81
2022/04/09 07:39:25;;;;;;;1.77;0.60;;;8.70;1.00;;;;;;5070574;28;20184;-82
2022/04/09 07:41:51;;;;;;;3.80;0.20;;;8.30;55.90;;;;;;5074675;28;20252;-82
2022/04/09 07:44:16;;;;;;;1.43;0.40;;;9.10;1.00;;;;;;5075719;28;21079;-82
2022/04/09 07:46:42;;;;;;;0.63;0.47;;;8.60;99.90;;;;;;5075742;28;20246;-82
2022/04/09 07:49:07;;;;;;;2.73;0.60;;;7.60;1.00;;;;;;5074387;28;20177;-82
2022/04/09 07:51:33;;;;;;;4.33;0.73;;;6.80;1.00;;;;;;5073803;28;20186;-81
2022/04/09 07:53:58;;;;;;;3.30;0.83;;;6.30;1.00;;;;;;5075281;28;20199;-82
2022/04/09 07:56:24;;;;;;;2.90;1.33;;;6.40;1.00;;;;;;5075469;28;20269;-81
2022/04/09 07:58:49;;;;;;;7.17;0.67;;;6.70;1.00;;;;;;5075522;28;20179;-81
2022/04/09 08:01:15;;;;;;;3.30;0.67;;;6.90;1.00;;;;;;5075544;28;20522;-81
2022/04/09 08:03:40;;;;;;;4.13;0.60;;;8.50;99.90;;;;;;5075542;28;20176;-82
2022/04/09 08:06:06;;;;;;;3.80;0.90;;;8.10;56.90;;;;;;5075449;28;20175;-81
2022/04/09 08:08:32;;;;;;;1.93;0.50;;;7.80;93.10;;;;;;5074994;28;20210;-82
2022/04/09 08:10:58;;;;;;;3.40;0.63;;;7.40;1.00;;;;;;5075291;28;20531;-82
2022/04/09 08:13:24;;;;;;;2.23;0.40;;;7.10;1.00;;;;;;5073961;28;20428;-82
2022/04/09 08:15:50;;;;;;;1.43;0.30;;;6.80;1.00;;;;;;5075341;28;20182;-82
2022/04/09 08:18:15;;;;;;;0.77;0.27;;;8.30;1.00;;;;;;5075061;28;20458;-82
2022/04/09 08:20:41;;;;;;;1.50;0.63;;;12.10;1.00;;;;;;5075183;28;20171;-82
2022/04/09 08:23:07;;;;;;;1.57;0.30;;;13.30;99.90;;;;;;5069605;28;20204;-83
2022/04/09 08:25:32;;;;;;;2.50;0.80;;;12.90;99.90;;;;;;5071668;28;20284;-81
2022/04/09 08:28:00;;;;;;;4.70;0.60;;;13.10;99.90;;;;;;5074323;28;20271;-82
2022/04/09 08:30:26;;;;;;;0.90;0.37;;;11.60;99.90;;;;;;5073263;28;20164;-82
2022/04/09 08:32:56;;;;;;;3.17;0.40;;;10.80;1.00;;;;;;5073307;28;20476;-82
2022/04/09 08:35:22;;;;;;;2.57;1.10;;;11.70;99.90;;;;;;5071991;28;21062;-83
2022/04/09 08:37:52;;;;;;;3.53;0.30;;;11.30;99.90;;;;;;5108687;22;20499;-82
2022/04/09 08:40:19;;;;;;;1.20;0.20;;;10.10;1.00;;;;;;5074676;28;20409;-82
2022/04/09 08:42:44;;;;;;;3.23;0.30;;;8.90;99.90;;;;;;5073020;28;20418;-82
2022/04/09 08:45:10;;;;;;;3.83;0.90;;;8.40;1.00;;;;;;5074503;28;21231;-82
2022/04/09 08:47:36;;;;;;;1.20;0.30;;;8.10;1.00;;;;;;5072960;28;20240;-81
2022/04/09 08:50:03;;;;;;;2.70;0.50;;;8.50;99.90;;;;;;5057086;28;20176;-81
2022/04/09 08:52:29;;;;;;;2.50;0.20;;;8.50;31.50;;;;;;5051752;28;20472;-82
2022/04/09 08:54:56;;;;;;;0.93;0.37;;;9.00;1.00;;;;;;5053764;28;20464;-81
2022/04/09 08:57:21;;;;;;;2.10;0.30;;;9.10;99.90;;;;;;5053793;28;20411;-82
2022/04/09 08:59:47;;;;;;;2.97;0.60;;;8.10;99.90;;;;;;5052711;28;20961;-83
2022/04/09 09:02:13;;;;;;;1.07;0.30;;;8.30;1.00;;;;;;5054166;28;20525;-83
2022/04/09 09:04:38;;;;;;;4.17;0.77;;;9.90;1.00;;;;;;5068814;28;20512;-83
2022/04/09 09:07:20;;;;;;;1.70;0.30;;;10.70;27.30;;;;;;5053723;28;20197;-83
2022/04/09 09:09:46;;;;;;;6.37;0.93;;;11.50;99.90;;;;;;5054092;28;20238;-83
2022/04/09 09:12:12;;;;;;;3.70;0.40;;;12.20;99.90;;;;;;5053560;28;20424;-82
2022/04/09 09:14:46;;;;;;;1.10;0.37;;;11.30;99.90;;;;;;5053645;28;20463;-83
2022/04/09 09:17:11;;;;;;;3.17;0.33;;;11.70;99.90;;;;;;5053731;28;20410;-83
2022/04/09 09:19:47;;;;;;;2.93;0.50;;;12.50;99.90;;;;;;5053791;28;20827;-83
2022/04/09 09:22:14;;;;;;;6.27;0.50;;;12.00;99.90;;;;;;5053291;28;20169;-83
2022/04/09 09:24:42;;;;;;;1.63;0.43;;;13.00;99.90;;;;;;5053510;28;20912;-82
2022/04/09 09:27:08;;;;;;;1.10;0.40;;;12.10;99.90;;;;;;5053541;28;20924;-83
2022/04/09 09:29:36;;;;;;;2.53;0.43;;;10.90;99.90;;;;;;5053554;28;20415;-83
2022/04/09 09:32:04;;;;;;;3.00;0.30;;;10.00;1.00;;;;;;5053371;28;20188;-83
2022/04/09 09:34:30;;;;;;;6.37;0.50;;;9.20;99.90;;;;;;5053263;28;20530;-83
2022/04/09 09:36:59;;;;;;;3.17;0.60;;;8.70;1.00;;;;;;5053189;28;20409;-82
2022/04/09 09:39:25;;;;;;;3.03;0.30;;;8.30;99.90;;;;;;5051968;28;20439;-83
2022/04/09 09:41:58;;;;;;;2.73;0.47;;;8.40;99.90;;;;;;5053425;28;20413;-83
2022/04/09 09:44:26;;;;;;;2.90;0.50;;;10.00;1.00;;;;;;5053114;28;20447;-82
2022/04/09 09:46:53;;;;;;;0.60;0.23;;;11.30;1.00;;;;;;5051963;28;20422;-83
2022/04/09 09:49:22;;;;;;;2.20;0.40;;;9.90;1.00;;;;;;5053164;28;20410;-83
2022/04/09 09:52:06;;;;;;;1.50;0.50;;;11.50;1.00;;;;;;5051758;28;20784;-82
2022/04/09 09:54:32;;;;;;;3.60;0.20;;;11.90;99.90;;;;;;5052979;28;20482;-83
2022/04/09 09:56:58;;;;;;;2.20;0.30;;;12.40;99.90;;;;;;5053093;28;20782;-84
2022/04/09 09:59:24;;;;;;;4.63;0.73;;;13.00;99.90;;;;;;5052795;28;20236;-81
2022/04/09 10:01:51;;;;;;;3.70;0.40;;;13.90;99.90;;;;;;5052585;28;20172;-81
2022/04/09 10:04:17;;;;;;;1.73;0.20;;;14.40;99.90;;;;;;5051444;28;20444;-80
2022/04/09 10:06:43;;;;;;;3.80;0.60;;;15.10;99.90;;;;;;5052798;28;20472;-80
2022/04/09 10:09:10;;;;;;;2.80;0.40;;;14.40;99.90;;;;;;5052433;28;20188;-81
2022/04/09 10:11:39;;;;;;;3.57;0.70;;;13.50;99.90;;;;;;5052744;28;20419;-81
2022/04/09 10:14:06;;;;;;;1.30;0.43;;;13.40;99.90;;;;;;5052429;28;20464;-82
2022/04/09 10:16:35;;;;;;;5.13;0.30;;;13.90;99.90;;;;;;5052503;28;20421;-81
2022/04/09 10:19:02;;;;;;;1.30;0.30;;;13.70;99.90;;;;;;5051899;28;20463;-81
2022/04/09 10:21:30;;;;;;;3.20;0.20;;;12.60;99.90;;;;;;5052207;28;20434;-81
2022/04/09 10:23:58;;;;;;;1.93;0.30;;;13.10;99.90;;;;;;5051381;28;20409;-81
2022/04/09 10:26:25;;;;;;;1.07;0.20;;;14.70;99.90;;;;;;5052407;28;20416;-81
2022/04/09 10:28:51;;;;;;;2.80;0.40;;;13.50;99.90;;;;;;5052407;28;20461;-81
2022/04/09 10:31:23;;;;;;;1.20;0.30;;;13.90;99.90;;;;;;5052555;28;20416;-81
2022/04/09 10:33:56;;;;;;;2.77;0.50;;;12.60;99.90;;;;;;5055585;28;20520;-82
2022/04/09 10:36:39;;;;;;;1.90;0.20;;;11.30;99.90;;;;;;5061184;28;20432;-80
2022/04/09 10:39:39;;;;;;;3.90;0.37;;;10.00;99.90;;;;;;5074671;28;20474;-85
2022/04/09 10:42:06;;;;;;;1.63;0.30;;;9.20;99.90;;;;;;5067120;28;20422;-83
2022/04/09 10:44:44;;;;;;;2.63;0.50;;;9.50;1.00;;;;;;5070457;28;20421;-82
2022/04/09 10:47:14;;;;;;;3.43;0.73;;;9.30;1.00;;;;;;5062239;28;20429;-81
2022/04/09 10:49:58;;;;;;;1.07;0.20;;;10.30;1.00;;;;;;5049813;28;20412;-81
2022/04/09 10:52:27;;;;;;;1.17;0.33;;;12.80;1.00;;;;;;5051420;28;20492;-84
2022/04/09 10:55:20;;;;;;;1.57;0.30;;;14.90;99.90;;;;;;5051753;28;20500;-83
2022/04/09 10:57:51;;;;;;;2.00;0.20;;;13.40;99.90;;;;;;5052050;28;20429;-85
2022/04/09 11:00:29;;;;;;;2.00;0.30;;;11.10;1.00;;;;;;5050202;28;20405;-83
2022/04/09 11:03:17;;;;;;;4.70;0.30;;;10.60;25.70;;;;;;5050756;28;20412;-84
2022/04/09 11:05:43;;;;;;;2.87;0.40;;;9.90;99.90;;;;;;5053055;28;20920;-83
2022/04/09 11:08:14;;;;;;;2.43;0.37;;;9.40;99.90;;;;;;5052577;28;20400;-83
2022/04/09 11:10:41;;;;;;;3.17;1.23;;;9.00;99.90;;;;;;5052994;28;20404;-82
2022/04/09 11:13:10;;;;;;;2.50;0.27;;;8.40;1.00;;;;;;5051263;28;20785;-83
2022/04/09 11:15:37;;;;;;;1.57;0.37;;;7.80;1.00;;;;;;5052512;28;20834;-82
2022/04/09 11:18:02;;;;;;;0.77;0.20;;;7.50;50.60;;;;;;5054571;28;20408;-80
2022/04/09 11:20:33;;;;;;;4.30;0.60;;;7.40;99.90;;;;;;5055220;28;20997;-79
2022/04/09 11:23:12;;;;;;;2.37;0.93;;;9.40;1.00;;;;;;5072473;28;20231;-81
2022/04/09 11:25:43;;;;;;;2.80;0.20;;;11.10;99.90;;;;;;5072426;28;20414;-81
2022/04/09 11:28:17;;;;;;;1.87;0.43;;;12.50;99.90;;;;;;5074220;28;20483;-82
2022/04/09 11:30:58;;;;;;;2.17;0.40;;;13.00;1.00;;;;;;5072805;28;20425;-81
2022/04/09 11:33:24;;;;;;;5.40;0.37;;;13.70;1.00;;;;;;5071386;28;20517;-81
2022/04/09 11:35:49;;;;;;;1.60;0.20;;;14.30;99.90;;;;;;5074361;28;20554;-85
2022/04/09 11:38:16;;;;;;;3.03;0.30;;;13.70;99.90;;;;;;5072842;28;20847;-86
2022/04/09 11:40:47;;;;;;;3.83;0.30;;;12.20;99.90;;;;;;5072627;28;20421;-84
2022/04/09 11:43:18;;;;;;;2.90;0.40;;;11.70;1.00;;;;;;5075755;28;20407;-93
2022/04/09 11:45:44;;;;;;;1.40;0.23;;;11.90;1.00;;;;;;5075618;28;20506;-80
2022/04/09 11:48:17;;;;;;;2.30;0.53;;;13.40;99.90;;;;;;5074141;28;20421;-81
2022/04/09 11:50:44;;;;;;;1.10;0.50;;;13.80;99.90;;;;;;5072811;28;20425;-81
2022/04/09 11:53:12;;;;;;;4.97;0.27;;;15.10;99.90;;;;;;5074139;28;20473;-81
2022/04/09 11:55:39;;;;;;;2.10;0.40;;;15.00;99.90;;;;;;5071864;28;20474;-80
2022/04/09 11:58:06;;;;;;;2.93;0.50;;;13.70;99.90;;;;;;5069968;28;20418;-80
2022/04/09 12:00:35;;;;;;;3.10;0.20;;;13.10;99.90;;;;;;5071749;28;20448;-80
2022/04/09 12:03:02;;;;;;;2.90;0.37;;;14.20;99.90;;;;;;5073447;28;20419;-80
2022/04/09 12:05:35;;;;;;;2.10;0.37;;;14.40;99.90;;;;;;5073803;28;20522;-80
2022/04/09 12:08:00;;;;;;;4.60;0.57;;;14.20;99.90;;;;;;5126570;22;20480;-79
2022/04/09 12:10:28;;;;;;;3.77;0.50;;;14.30;99.90;;;;;;5095189;28;20501;-79
2022/04/09 12:12:55;;;;;;;3.70;0.43;;;13.90;99.90;;;;;;5095254;28;20222;-79
2022/04/09 12:15:27;;;;;;;2.50;1.23;;;14.90;99.90;;;;;;5093719;28;20474;-79
2022/04/09 12:17:52;;;;;;;3.57;0.80;;;15.10;99.90;;;;;;5095105;28;20414;-79
2022/04/09 12:20:36;;;;;;;2.77;0.40;;;13.60;99.90;;;;;;5095271;28;20433;-79
2022/04/09 12:23:05;;;;;;;2.27;0.40;;;13.70;99.90;;;;;;5094867;28;20174;-79
2022/04/09 12:25:42;;;;;;;4.00;0.50;;;14.30;99.90;;;;;;5094931;28;20921;-78
2022/04/09 12:28:34;;;;;;;4.20;0.63;;;14.60;99.00;;;;;;5094892;28;20425;-79
2022/04/09 12:31:01;;;;;;;4.20;0.63;;;13.90;75.70;;;;;;5094953;28;20525;-78
2022/04/09 12:33:28;;;;;;;4.20;0.60;;;14.40;66.50;;;;;;5094755;28;20470;-78
2022/04/09 12:36:06;;;;;;;7.33;0.73;;;14.70;59.20;;;;;;5094703;28;21038;-78
2022/04/09 12:38:36;;;;;;;4.97;1.10;;;14.80;91.80;;;;;;5094409;28;20402;-87
2022/04/09 12:41:05;;;;;;;5.63;0.90;;;14.60;51.70;;;;;;5090939;28;20516;-88
2022/04/09 12:43:35;;;;;;;4.37;0.90;;;14.20;36.90;;;;;;5094441;28;20467;-83
2022/04/09 12:46:13;;;;;;;9.43;0.60;;;13.30;31.00;;;;;;5094648;28;20420;-81
2022/04/09 12:48:51;;;;;;;8.20;1.03;;;13.50;31.70;;;;;;5094636;28;20466;-82
2022/04/09 12:51:19;;;;;;;5.10;1.13;;;12.50;22.60;;;;;;5092011;28;20466;-80
2022/04/09 12:53:51;;;;;;;9.80;0.93;;;12.00;25.20;;;;;;5091738;28;20777;-81
2022/04/09 12:56:17;;;;;;;9.40;0.73;;;13.60;41.20;;;;;;5091742;28;20427;-80
2022/04/09 12:58:44;;;;;;;6.37;1.00;;;13.80;32.70;;;;;;5093061;28;20929;-80